createdAt,value
2022-10-22T00:01:05.155Z,101241.61
2022-10-22T00:03:55.455Z,101238.08
2022-10-22T00:06:45.642Z,101233.27
2022-10-22T00:09:35.579Z,101224.53
2022-10-22T00:12:26.165Z,101227.36
2022-10-22T00:15:16.590Z,101235.80
2022-10-22T00:18:06.894Z,101243.73
2022-10-22T00:20:57.468Z,101242.58
2022-10-22T00:23:47.900Z,101241.60
2022-10-22T00:26:39.726Z,101250.80
2022-10-22T00:29:29.841Z,101259.35
2022-10-22T00:32:19.698Z,101250.51
2022-10-22T00:35:11.515Z,101257.83
2022-10-22T00:38:01.746Z,101260.61
2022-10-22T00:40:52.762Z,101257.68
2022-10-22T00:44:01.020Z,101250.30
2022-10-22T00:46:51.258Z,101239.09
2022-10-22T00:49:42.206Z,101241.95
2022-10-22T00:52:33.312Z,101234.97
2022-10-22T00:55:24.964Z,101231.40
2022-10-22T00:58:16.869Z,101233.69
2022-10-22T01:01:10.800Z,101222.49
2022-10-22T01:04:02.141Z,101213.55
2022-10-22T01:06:52.793Z,101211.85
2022-10-22T01:09:49.132Z,101206.14
2022-10-22T01:12:47.637Z,101209.27
2022-10-22T01:15:46.994Z,101206.08
2022-10-22T01:18:49.455Z,101205.67
2022-10-22T01:21:46.938Z,101201.45
2022-10-22T01:25:01.406Z,101192.44
2022-10-22T01:28:03.080Z,101187.98
2022-10-22T01:30:57.796Z,101187.05
2022-10-22T01:33:50.433Z,101190.44
2022-10-22T01:36:41.465Z,101194.48
2022-10-22T01:39:35.119Z,101193.36
2022-10-22T01:42:25.002Z,101185.87
2022-10-22T01:45:16.562Z,101181.14
2022-10-22T01:48:16.627Z,101181.16
2022-10-22T01:51:26.948Z,101176.13
2022-10-22T01:54:30.641Z,101176.66
2022-10-22T01:57:28.554Z,101187.23
2022-10-22T02:00:21.237Z,101183.56
2022-10-22T02:03:19.869Z,101174.77
2022-10-22T02:06:19.723Z,101172.14
2022-10-22T02:09:11.315Z,101162.02
2022-10-22T02:15:00.470Z,101164.17
2022-10-22T02:17:51.128Z,101156.89
2022-10-22T02:20:43.408Z,101159.20
2022-10-22T02:23:33.267Z,101159.43
2022-10-22T02:26:26.518Z,101155.98
2022-10-22T02:29:22.372Z,101156.27
2022-10-22T02:32:17.859Z,101151.77
2022-10-22T02:35:12.068Z,101149.82
2022-10-22T02:38:03.646Z,101161.67
2022-10-22T02:40:54.769Z,101157.73
2022-10-22T02:43:47.383Z,101154.80
2022-10-22T02:46:37.728Z,101157.56
2022-10-22T02:49:28.674Z,101160.45
2022-10-22T02:52:19.131Z,101163.20
2022-10-22T02:55:10.884Z,101165.98
2022-10-22T02:58:01.228Z,101164.89
2022-10-22T03:00:52.771Z,101157.88
2022-10-22T03:03:43.182Z,101157.69
2022-10-22T03:06:34.133Z,101155.91
2022-10-22T03:09:24.904Z,101159.02
2022-10-22T03:12:15.480Z,101162.38
2022-10-22T03:15:06.451Z,101160.52
2022-10-22T03:17:56.588Z,101161.88
2022-10-22T03:20:46.719Z,101164.86
2022-10-22T03:23:37.836Z,101166.73
2022-10-22T03:26:28.191Z,101161.91
2022-10-22T03:29:19.320Z,101164.49
2022-10-22T03:32:09.963Z,101159.02
2022-10-22T03:37:51.614Z,101155.39
2022-10-22T03:40:41.760Z,101167.20
2022-10-22T03:43:31.279Z,101173.36
2022-10-22T03:46:21.235Z,101178.44
2022-10-22T03:49:11.178Z,101184.85
2022-10-22T03:52:06.229Z,101188.68
2022-10-22T03:54:56.089Z,101187.13
2022-10-22T03:57:46.087Z,101190.13
2022-10-22T04:00:37.501Z,101190.45
2022-10-22T04:03:27.766Z,101190.92
2022-10-22T04:06:18.563Z,101190.40
2022-10-22T04:09:08.968Z,101189.23
2022-10-22T04:11:59.058Z,101185.38
2022-10-22T04:14:49.216Z,101192.02
2022-10-22T04:17:39.959Z,101197.48
2022-10-22T04:20:30.078Z,101202.54
2022-10-22T04:23:20.466Z,101200.98
2022-10-22T04:26:10.636Z,101193.33
2022-10-22T04:29:00.520Z,101193.55
2022-10-22T04:31:51.106Z,101192.55
2022-10-22T04:34:41.016Z,101189.30
2022-10-22T04:37:32.984Z,101186.12
2022-10-22T04:40:24.246Z,101188.73
2022-10-22T04:43:14.476Z,101190.89
2022-10-22T04:46:05.153Z,101188.33
2022-10-22T04:48:55.888Z,101185.81
2022-10-22T04:51:46.488Z,101182.95
2022-10-22T04:54:36.361Z,101183.65
2022-10-22T04:57:30.514Z,101180.84
2022-10-22T05:00:21.001Z,101179.67
2022-10-22T05:03:11.539Z,101178.14
2022-10-22T05:06:03.774Z,101176.20
2022-10-22T05:08:58.369Z,101169.80
2022-10-22T05:11:51.033Z,101175.04
2022-10-22T05:14:44.025Z,101173.34
2022-10-22T05:17:38.669Z,101169.32
2022-10-22T05:20:30.266Z,101176.64
2022-10-22T05:23:20.135Z,101182.91
2022-10-22T05:26:12.749Z,101183.23
2022-10-22T05:29:02.781Z,101182.05
2022-10-22T05:31:53.355Z,101177.91
2022-10-22T05:34:43.151Z,101172.36
2022-10-22T05:37:33.553Z,101170.65
2022-10-22T05:40:30.428Z,101171.52
2022-10-22T05:43:20.906Z,101175.22
2022-10-22T05:46:13.142Z,101177.09
2022-10-22T05:49:05.328Z,101181.72
2022-10-22T05:51:55.461Z,101186.38
2022-10-22T05:54:45.876Z,101192.11
2022-10-22T05:57:36.137Z,101193.41
2022-10-22T06:00:25.919Z,101199.00
2022-10-22T06:03:16.279Z,101200.10
2022-10-22T06:06:14.187Z,101204.71
2022-10-22T06:09:06.610Z,101209.88
2022-10-22T06:11:57.846Z,101215.08
2022-10-22T06:14:48.078Z,101218.63
2022-10-22T06:17:37.993Z,101223.83
2022-10-22T06:20:28.039Z,101225.92
2022-10-22T06:23:18.590Z,101230.20
2022-10-22T06:26:09.394Z,101233.46
2022-10-22T06:28:59.489Z,101230.38
2022-10-22T06:31:50.116Z,101231.77
2022-10-22T06:34:40.171Z,101236.40
2022-10-22T06:37:30.772Z,101242.94
2022-10-22T06:40:20.857Z,101241.41
2022-10-22T06:43:10.537Z,101249.28
2022-10-22T06:46:04.023Z,101253.20
2022-10-22T06:48:55.819Z,101254.33
2022-10-22T06:51:45.990Z,101254.64
2022-10-22T06:54:36.185Z,101258.80
2022-10-22T06:57:26.097Z,101265.84
2022-10-22T07:00:17.322Z,101270.66
2022-10-22T07:03:07.118Z,101268.08
2022-10-22T07:05:57.092Z,101269.48
2022-10-22T07:08:47.473Z,101266.50
2022-10-22T07:11:43.077Z,101266.72
2022-10-22T07:14:33.085Z,101279.66
2022-10-22T07:17:22.765Z,101290.13
2022-10-22T07:20:16.838Z,101293.60
2022-10-22T07:23:06.920Z,101301.19
2022-10-22T07:25:57.603Z,101309.62
2022-10-22T07:28:47.801Z,101315.34
2022-10-22T07:31:37.586Z,101323.85
2022-10-22T07:34:27.671Z,101325.98
2022-10-22T07:37:17.646Z,101328.61
2022-10-22T07:40:10.302Z,101335.10
2022-10-22T07:43:00.138Z,101339.41
2022-10-22T07:45:50.484Z,101344.33
2022-10-22T07:48:40.946Z,101343.09
2022-10-22T07:51:30.851Z,101342.98
2022-10-22T07:54:20.940Z,101337.27
2022-10-22T07:57:11.342Z,101342.96
2022-10-22T08:00:01.366Z,101357.86
2022-10-22T08:03:02.152Z,101361.33
2022-10-22T08:05:52.850Z,101364.08
2022-10-22T08:08:43.693Z,101366.92
2022-10-22T08:11:34.232Z,101365.83
2022-10-22T08:14:24.215Z,101369.42
2022-10-22T08:17:14.243Z,101369.65
2022-10-22T08:20:04.319Z,101370.37
2022-10-22T08:22:54.246Z,101362.51
2022-10-22T08:25:44.074Z,101363.77
2022-10-22T08:28:37.081Z,101361.54
2022-10-22T08:31:27.491Z,101362.38
2022-10-22T08:34:18.065Z,101365.30
2022-10-22T08:37:09.132Z,101365.17
2022-10-22T08:39:58.788Z,101364.35
2022-10-22T08:43:14.599Z,101366.34
2022-10-22T08:46:16.479Z,101369.55
2022-10-22T08:49:13.169Z,101374.16
2022-10-22T08:52:03.363Z,101379.19
2022-10-22T08:54:58.270Z,101385.11
2022-10-22T08:57:58.193Z,101382.27
2022-10-22T09:00:53.600Z,101382.52
2022-10-22T09:03:52.020Z,101385.66
2022-10-22T09:06:44.640Z,101389.66
2022-10-22T09:09:42.246Z,101390.18
2022-10-22T09:12:32.094Z,101386.18
2022-10-22T09:15:22.212Z,101383.33
2022-10-22T09:18:25.552Z,101378.22
2022-10-22T09:21:26.964Z,101370.86
2022-10-22T09:24:27.495Z,101384.14
2022-10-22T09:27:22.038Z,101392.76
2022-10-22T09:30:19.217Z,101392.58
2022-10-22T09:33:21.331Z,101392.46
2022-10-22T09:36:17.595Z,101390.23
2022-10-22T09:39:22.928Z,101394.71
2022-10-22T09:42:16.234Z,101401.66
2022-10-22T09:45:06.787Z,101402.21
2022-10-22T09:48:12.293Z,101410.79
2022-10-22T09:51:08.128Z,101406.82
2022-10-22T09:54:01.007Z,101408.79
2022-10-22T09:57:00.190Z,101413.86
2022-10-22T09:59:54.045Z,101413.89
2022-10-22T10:02:44.516Z,101407.35
2022-10-22T10:05:37.609Z,101409.25
2022-10-22T10:08:28.341Z,101410.15
2022-10-22T10:11:29.110Z,101404.70
2022-10-22T10:14:26.733Z,101407.80
2022-10-22T10:17:27.148Z,101415.27
2022-10-22T10:20:36.103Z,101408.55
2022-10-22T10:23:33.923Z,101412.66
2022-10-22T10:26:30.135Z,101413.98
2022-10-22T10:29:33.998Z,101411.98
2022-10-22T10:32:46.673Z,101412.33
2022-10-22T10:35:47.972Z,101417.48
2022-10-22T10:38:55.703Z,101419.73
2022-10-22T10:41:54.368Z,101418.41
2022-10-22T10:44:55.763Z,101417.15
2022-10-22T10:48:23.526Z,101419.48
2022-10-22T10:51:26.618Z,101420.05
2022-10-22T10:54:48.209Z,101423.14
2022-10-22T10:57:48.039Z,101420.55
2022-10-22T11:00:48.591Z,101410.80
2022-10-22T11:04:08.258Z,101409.84
2022-10-22T11:07:11.569Z,101408.05
2022-10-22T11:10:23.032Z,101401.91
2022-10-22T11:13:20.034Z,101400.77
2022-10-22T11:16:18.789Z,101398.98
2022-10-22T11:19:22.644Z,101398.81
2022-10-22T11:22:17.229Z,101404.33
2022-10-22T11:25:15.245Z,101405.94
2022-10-22T11:28:13.268Z,101396.33
2022-10-22T11:31:06.620Z,101389.19
2022-10-22T11:34:15.235Z,101393.34
2022-10-22T11:37:07.459Z,101396.65
2022-10-22T11:40:02.771Z,101387.42
2022-10-22T11:42:55.312Z,101384.94
2022-10-22T11:45:51.483Z,101382.23
2022-10-22T11:48:41.506Z,101384.34
2022-10-22T11:51:37.053Z,101388.47
2022-10-22T11:54:46.055Z,101376.17
2022-10-22T11:57:43.840Z,101370.07
2022-10-22T12:00:47.396Z,101353.25
2022-10-22T12:03:45.540Z,101354.41
2022-10-22T12:06:54.761Z,101357.05
2022-10-22T12:09:47.543Z,101358.67
2022-10-22T12:12:41.599Z,101347.76
2022-10-22T12:15:31.955Z,101355.05
2022-10-22T12:18:24.938Z,101349.33
2022-10-22T12:21:17.156Z,101350.32
2022-10-22T12:24:14.068Z,101340.54
2022-10-22T12:27:03.696Z,101332.41
2022-10-22T12:29:57.670Z,101332.38
2022-10-22T12:32:48.258Z,101328.17
2022-10-22T12:35:45.804Z,101333.84
2022-10-22T12:38:40.658Z,101327.29
2022-10-22T12:41:35.333Z,101323.60
2022-10-22T12:44:26.057Z,101329.80
2022-10-22T12:47:19.249Z,101325.30
2022-10-22T12:50:17.799Z,101329.34
2022-10-22T12:53:15.670Z,101328.58
2022-10-22T12:56:09.767Z,101318.58
2022-10-22T12:59:03.328Z,101325.67
2022-10-22T13:01:54.955Z,101330.55
2022-10-22T13:05:05.181Z,101335.95
2022-10-22T13:08:03.248Z,101337.89
2022-10-22T13:10:55.888Z,101336.84
2022-10-22T13:13:47.061Z,101336.94
2022-10-22T13:19:48.436Z,101334.11
2022-10-22T13:22:39.265Z,101336.55
2022-10-22T13:25:31.998Z,101344.54
2022-10-22T13:28:24.741Z,101335.93
2022-10-22T13:31:19.737Z,101338.98
2022-10-22T13:34:17.304Z,101339.02
2022-10-22T13:37:11.340Z,101345.20
2022-10-22T13:40:01.094Z,101342.48
2022-10-22T13:42:51.292Z,101340.09
2022-10-22T13:45:41.340Z,101345.81
2022-10-22T13:48:32.886Z,101345.14
2022-10-22T13:51:29.238Z,101337.55
2022-10-22T13:54:22.476Z,101335.39
2022-10-22T13:57:13.621Z,101328.23
2022-10-22T14:00:03.707Z,101328.95
2022-10-22T14:03:02.697Z,101338.34
2022-10-22T14:05:52.868Z,101343.01
2022-10-22T14:08:43.598Z,101345.05
2022-10-22T14:11:35.223Z,101346.73
2022-10-22T14:14:25.196Z,101356.05
2022-10-22T14:17:19.387Z,101355.52
2022-10-22T14:20:11.465Z,101352.52
2022-10-22T14:23:13.033Z,101347.20
2022-10-22T14:26:03.243Z,101344.71
2022-10-22T14:29:10.365Z,101341.20
2022-10-22T14:32:00.623Z,101349.86
2022-10-22T14:34:50.882Z,101353.42
2022-10-22T14:37:40.949Z,101352.34
2022-10-22T14:40:31.453Z,101353.19
2022-10-22T14:43:24.950Z,101356.15
2022-10-22T14:46:17.134Z,101359.15
2022-10-22T14:49:07.586Z,101362.25
2022-10-22T14:51:57.802Z,101372.29
2022-10-22T14:54:49.194Z,101376.05
2022-10-22T14:57:40.937Z,101378.91
2022-10-22T15:00:32.138Z,101388.20
2022-10-22T15:03:22.851Z,101390.95
2022-10-22T15:06:13.209Z,101392.59
2022-10-22T15:09:03.178Z,101391.38
2022-10-22T15:11:53.530Z,101393.73
2022-10-22T15:14:43.611Z,101392.73
2022-10-22T15:17:34.185Z,101392.65
2022-10-22T15:20:24.232Z,101392.27
2022-10-22T15:23:14.115Z,101394.61
2022-10-22T15:26:03.922Z,101395.50
2022-10-22T15:28:54.635Z,101393.80
2022-10-22T15:31:51.312Z,101392.41
2022-10-22T15:34:41.838Z,101394.93
2022-10-22T15:37:32.024Z,101398.94
2022-10-22T15:40:21.866Z,101401.02
2022-10-22T15:43:12.103Z,101406.55
2022-10-22T15:46:13.026Z,101411.60
2022-10-22T15:49:03.055Z,101415.75
2022-10-22T15:51:52.957Z,101417.41
2022-10-22T15:54:43.979Z,101420.20
2022-10-22T15:57:34.663Z,101420.11
2022-10-22T16:00:25.210Z,101422.20
2022-10-22T16:03:15.405Z,101424.17
2022-10-22T16:06:06.608Z,101423.91
2022-10-22T16:08:57.993Z,101430.44
2022-10-22T16:11:48.022Z,101434.31
2022-10-22T16:14:38.372Z,101441.77
2022-10-22T16:17:28.101Z,101447.75
2022-10-22T16:20:18.141Z,101459.14
2022-10-22T16:23:08.486Z,101464.20
2022-10-22T16:25:58.106Z,101459.14
2022-10-22T16:28:48.592Z,101465.89
2022-10-22T16:31:38.393Z,101471.19
2022-10-22T16:34:30.318Z,101475.26
2022-10-22T16:37:20.697Z,101475.90
2022-10-22T16:40:13.642Z,101475.02
2022-10-22T16:43:03.787Z,101481.00
2022-10-22T16:45:54.674Z,101488.26
2022-10-22T16:48:47.745Z,101488.42
2022-10-22T16:51:39.457Z,101493.04
2022-10-22T16:54:29.448Z,101496.90
2022-10-22T16:57:19.627Z,101498.73
2022-10-22T17:00:12.346Z,101497.82
2022-10-22T17:03:02.723Z,101508.15
2022-10-22T17:05:52.883Z,101511.42
2022-10-22T17:08:43.076Z,101511.44
2022-10-22T17:11:36.360Z,101510.25
2022-10-22T17:14:28.696Z,101509.73
2022-10-22T17:17:18.473Z,101512.36
2022-10-22T17:20:09.735Z,101513.18
2022-10-22T17:22:59.634Z,101518.05
2022-10-22T17:25:49.407Z,101521.95
2022-10-22T17:28:39.170Z,101530.51
2022-10-22T17:31:32.712Z,101529.69
2022-10-22T17:34:22.702Z,101532.23
2022-10-22T17:37:13.125Z,101538.48
2022-10-22T17:40:02.752Z,101542.95
2022-10-22T17:42:52.680Z,101541.01
2022-10-22T17:45:42.523Z,101545.11
2022-10-22T17:48:32.669Z,101547.09
2022-10-22T17:51:24.132Z,101548.45
2022-10-22T17:54:15.906Z,101552.02
2022-10-22T17:57:05.781Z,101554.22
2022-10-22T17:59:55.456Z,101559.95
2022-10-22T18:02:46.089Z,101565.13
2022-10-22T18:05:36.526Z,101566.84
2022-10-22T18:08:26.026Z,101570.11
2022-10-22T18:11:18.941Z,101573.08
2022-10-22T18:14:09.509Z,101577.98
2022-10-22T18:16:59.479Z,101578.23
2022-10-22T18:19:50.834Z,101575.90
2022-10-22T18:22:42.319Z,101573.39
2022-10-22T18:25:31.979Z,101576.59
2022-10-22T18:28:22.033Z,101580.10
2022-10-22T18:31:14.499Z,101586.56
2022-10-22T18:34:04.278Z,101587.50
2022-10-22T18:36:54.404Z,101584.91
2022-10-22T18:39:44.936Z,101585.12
2022-10-22T18:42:39.758Z,101589.95
2022-10-22T18:45:30.996Z,101591.73
2022-10-22T18:48:23.134Z,101588.14
2022-10-22T18:51:16.545Z,101594.06
2022-10-22T18:54:22.166Z,101597.08
2022-10-22T18:57:14.340Z,101600.55
2022-10-22T19:00:05.245Z,101608.33
2022-10-22T19:02:55.980Z,101608.55
2022-10-22T19:05:51.410Z,101609.04
2022-10-22T19:08:41.985Z,101612.66
2022-10-22T19:11:31.690Z,101615.35
2022-10-22T19:14:22.201Z,101621.42
2022-10-22T19:17:12.062Z,101620.93
2022-10-22T19:20:02.201Z,101620.98
2022-10-22T19:22:53.544Z,101624.73
2022-10-22T19:25:43.082Z,101624.36
2022-10-22T19:28:32.956Z,101624.40
2022-10-22T19:31:25.442Z,101628.50
2022-10-22T19:34:15.431Z,101636.05
2022-10-22T19:37:05.170Z,101638.38
2022-10-22T19:39:55.006Z,101634.23
2022-10-22T19:42:47.235Z,101637.58
2022-10-22T19:45:40.620Z,101643.02
2022-10-22T19:48:30.068Z,101642.11
2022-10-22T19:51:22.466Z,101643.17
2022-10-22T19:54:18.787Z,101643.76
2022-10-22T19:57:08.740Z,101649.11
2022-10-22T19:59:58.704Z,101648.55
2022-10-22T20:02:48.917Z,101650.31
2022-10-22T20:05:41.183Z,101650.66
2022-10-22T20:08:31.221Z,101650.86
2022-10-22T20:11:23.112Z,101648.70
2022-10-22T20:14:15.090Z,101655.17
2022-10-22T20:17:05.651Z,101660.30
2022-10-22T20:19:56.797Z,101666.55
2022-10-22T20:22:46.631Z,101674.58
2022-10-22T20:25:36.902Z,101675.97
2022-10-22T20:28:27.366Z,101680.25
2022-10-22T20:31:20.337Z,101680.27
2022-10-22T20:34:10.615Z,101683.48
2022-10-22T20:37:00.701Z,101686.98
2022-10-22T20:39:51.563Z,101683.27
2022-10-22T20:42:42.332Z,101683.84
2022-10-22T20:45:32.530Z,101684.23
2022-10-22T20:48:24.844Z,101687.86
2022-10-22T20:51:15.430Z,101693.70
2022-10-22T20:54:06.761Z,101691.15
2022-10-22T20:56:57.087Z,101695.70
2022-10-22T20:59:48.310Z,101703.10
2022-10-22T21:02:39.358Z,101706.52
2022-10-22T21:05:30.163Z,101709.95
2022-10-22T21:08:20.920Z,101716.58
2022-10-22T21:11:10.545Z,101715.60
2022-10-22T21:14:00.308Z,101724.44
2022-10-22T21:16:52.212Z,101730.39
2022-10-22T21:19:42.099Z,101727.40
2022-10-22T21:22:32.091Z,101729.05
2022-10-22T21:25:22.049Z,101730.18
2022-10-22T21:28:12.009Z,101734.59
2022-10-22T21:31:01.872Z,101735.09
2022-10-22T21:33:53.435Z,101732.21
2022-10-22T21:36:43.463Z,101732.98
2022-10-22T21:39:39.666Z,101734.44
2022-10-22T21:42:32.210Z,101738.39
2022-10-22T21:45:22.520Z,101744.20
2022-10-22T21:48:14.446Z,101745.14
2022-10-22T21:51:09.806Z,101745.90
2022-10-22T21:53:59.383Z,101749.52
2022-10-22T21:56:49.202Z,101750.05
2022-10-22T21:59:39.436Z,101752.52
2022-10-22T22:02:32.280Z,101751.48
2022-10-22T22:05:22.676Z,101752.31
2022-10-22T22:08:12.352Z,101755.27
2022-10-22T22:11:05.717Z,101757.48
2022-10-22T22:13:57.346Z,101755.61
2022-10-22T22:16:47.367Z,101753.38
2022-10-22T22:19:37.000Z,101750.59
2022-10-22T22:22:27.837Z,101748.80
2022-10-22T22:25:18.304Z,101747.88
2022-10-22T22:28:08.592Z,101746.81
2022-10-22T22:30:59.090Z,101749.33
2022-10-22T22:33:49.215Z,101750.30
2022-10-22T22:36:41.378Z,101755.76
2022-10-22T22:39:31.760Z,101755.02
2022-10-22T22:42:21.426Z,101753.99
2022-10-22T22:45:12.735Z,101755.38
2022-10-22T22:48:02.808Z,101759.23
2022-10-22T22:50:53.079Z,101758.46
2022-10-22T22:53:44.478Z,101759.46
2022-10-22T22:56:35.504Z,101760.66
2022-10-22T22:59:26.131Z,101759.77
2022-10-22T23:02:16.132Z,101763.69
2022-10-22T23:05:08.329Z,101764.02
2022-10-22T23:07:58.639Z,101767.44
2022-10-22T23:10:48.739Z,101764.14
2022-10-22T23:13:39.205Z,101759.80
2022-10-22T23:16:32.048Z,101756.77
2022-10-22T23:19:23.572Z,101752.33
2022-10-22T23:22:13.446Z,101757.50
2022-10-22T23:25:03.951Z,101760.12
2022-10-22T23:27:53.755Z,101758.67
2022-10-22T23:30:46.413Z,101759.61
2022-10-22T23:33:36.476Z,101764.98
2022-10-22T23:36:26.455Z,101763.36
2022-10-22T23:39:18.661Z,101761.30
2022-10-22T23:42:08.673Z,101760.79
2022-10-22T23:44:58.628Z,101761.83
2022-10-22T23:47:48.640Z,101761.55
2022-10-22T23:50:40.183Z,101760.63
2022-10-22T23:53:30.158Z,101760.42
2022-10-22T23:56:20.717Z,101759.64
2022-10-22T23:59:11.092Z,101759.20
